createdAt,value
2023-05-17T00:01:15.434Z,26.4
2023-05-17T00:02:30.170Z,25.4
2023-05-17T00:03:43.712Z,27.1
2023-05-17T00:06:11.970Z,26.2
2023-05-17T00:08:40.226Z,23.2
2023-05-17T00:11:08.481Z,27.2
2023-05-17T00:13:36.743Z,23
2023-05-17T00:16:04.993Z,22
2023-05-17T00:18:33.257Z,25.6
2023-05-17T00:21:01.509Z,20
2023-05-17T00:23:29.765Z,20.8
2023-05-17T00:25:58.027Z,25
2023-05-17T00:28:26.287Z,21.8
2023-05-17T00:30:54.535Z,26
2023-05-17T00:33:22.794Z,19.7
2023-05-17T00:35:51.056Z,24.7
2023-05-17T00:38:19.312Z,21.5
2023-05-17T00:40:47.566Z,22.4
2023-05-17T00:43:15.824Z,22
2023-05-17T00:45:44.082Z,21.1
2023-05-17T00:48:12.341Z,24.1
2023-05-17T00:50:40.595Z,19.5
2023-05-17T00:51:55.345Z,25.3
2023-05-17T00:53:08.885Z,21.4
2023-05-17T00:55:37.150Z,22.1
2023-05-17T01:00:33.660Z,21.2
2023-05-17T01:03:01.919Z,22.8
2023-05-17T01:05:30.176Z,22.6
2023-05-17T01:07:58.426Z,22
2023-05-17T01:10:26.688Z,20.5
2023-05-17T01:12:54.944Z,23.6
2023-05-17T01:15:23.201Z,21.8
2023-05-17T01:16:37.931Z,23
2023-05-17T01:17:51.483Z,26.2
2023-05-17T01:20:19.733Z,21.2
2023-05-17T01:22:47.992Z,21.4
2023-05-17T01:25:16.256Z,20.8
2023-05-17T01:27:44.506Z,27
2023-05-17T01:32:41.024Z,21
2023-05-17T01:35:09.281Z,24.8
2023-05-17T01:37:37.534Z,22.7
2023-05-17T01:40:05.797Z,19
2023-05-17T01:41:20.520Z,16.7
2023-05-17T01:42:34.069Z,20.2
2023-05-17T01:47:30.589Z,22.1
2023-05-17T01:49:58.844Z,21.5
2023-05-17T01:52:27.099Z,21.7
2023-05-17T01:54:55.353Z,22.8
2023-05-17T01:57:23.611Z,22.7
2023-05-17T01:59:51.871Z,22.7
2023-05-17T02:04:48.383Z,19
2023-05-17T02:06:03.115Z,20.4
2023-05-17T02:07:16.656Z,20.8
2023-05-17T02:09:44.916Z,22.8
2023-05-17T02:12:13.176Z,19.9
2023-05-17T02:14:41.436Z,19.8
2023-05-17T02:17:09.690Z,17.6
2023-05-17T02:19:37.947Z,18.8
2023-05-17T02:22:06.207Z,15.2
2023-05-17T02:24:34.461Z,21.9
2023-05-17T02:27:02.713Z,21
2023-05-17T02:29:30.977Z,17.8
2023-05-17T02:30:45.707Z,18.7
2023-05-17T02:34:27.744Z,18.5
2023-05-17T02:36:56.001Z,13.5
2023-05-17T02:39:24.259Z,21.9
2023-05-17T02:41:52.517Z,17.2
2023-05-17T02:44:20.771Z,16.2
2023-05-17T02:46:49.028Z,16.3
2023-05-17T02:49:17.284Z,14.7
2023-05-17T02:51:45.546Z,14.7
2023-05-17T02:54:13.799Z,13.8
2023-05-17T02:55:28.531Z,16.2
2023-05-17T02:56:42.076Z,15.9
2023-05-17T02:59:10.330Z,16.2
2023-05-17T03:01:38.591Z,17
2023-05-17T03:06:35.106Z,17.5
2023-05-17T03:09:03.364Z,17.7
2023-05-17T03:11:31.621Z,19.6
2023-05-17T03:13:59.878Z,14.5
2023-05-17T03:16:28.138Z,16.4
2023-05-17T03:18:56.394Z,16.8
2023-05-17T03:20:11.121Z,18.1
2023-05-17T03:21:24.671Z,20.9
2023-05-17T03:23:52.930Z,19.2
2023-05-17T03:26:21.187Z,19.5
2023-05-17T03:28:49.443Z,16.7
2023-05-17T03:31:17.701Z,18.7
2023-05-17T03:33:45.949Z,20.2
2023-05-17T03:38:42.468Z,18.7
2023-05-17T03:41:10.724Z,18.5
2023-05-17T03:43:38.983Z,19.2
2023-05-17T03:44:53.716Z,19.3
2023-05-17T03:46:07.259Z,16.8
2023-05-17T03:48:35.517Z,20.5
2023-05-17T03:51:03.773Z,19.4
2023-05-17T03:53:32.035Z,17.2
2023-05-17T03:56:00.290Z,23.5
2023-05-17T03:58:28.544Z,20.6
2023-05-17T04:00:56.805Z,25.6
2023-05-17T04:03:25.056Z,21.7
2023-05-17T04:05:53.316Z,18.6
2023-05-17T04:09:36.306Z,19.8
2023-05-17T04:10:49.845Z,18.7
2023-05-17T04:13:18.107Z,19.6
2023-05-17T04:15:46.365Z,17.3
2023-05-17T04:18:14.619Z,21.6
2023-05-17T04:20:42.875Z,20.6
2023-05-17T04:23:11.133Z,18
2023-05-17T04:25:39.397Z,21.2
2023-05-17T04:28:07.653Z,17.5
2023-05-17T04:30:35.907Z,18.7
2023-05-17T04:33:04.166Z,18.2
2023-05-17T04:34:18.896Z,20.6
2023-05-17T04:35:32.440Z,20.8
2023-05-17T04:40:28.953Z,19.6
2023-05-17T04:42:57.209Z,19.3
2023-05-17T04:45:25.464Z,16.5
2023-05-17T04:47:53.727Z,17.1
2023-05-17T04:50:21.980Z,22.8
2023-05-17T04:52:50.294Z,18.3
2023-05-17T04:55:18.496Z,18.4
2023-05-17T04:57:46.758Z,20.8
2023-05-17T04:59:01.484Z,19.3
2023-05-17T05:00:15.035Z,17.5
2023-05-17T05:02:43.286Z,19.7
2023-05-17T05:05:11.550Z,21.7
2023-05-17T05:07:39.801Z,19.2
2023-05-17T05:12:36.319Z,22.1
2023-05-17T05:15:04.572Z,19
2023-05-17T05:17:32.836Z,19.4
2023-05-17T05:20:01.085Z,19.7
2023-05-17T05:22:29.348Z,16.7
2023-05-17T05:23:44.073Z,18.5
2023-05-17T05:24:57.620Z,23.6
2023-05-17T05:27:25.879Z,18.3
2023-05-17T05:29:54.138Z,19.2
2023-05-17T05:32:22.390Z,18.3
2023-05-17T05:34:50.656Z,16.8
2023-05-17T05:37:18.910Z,17.7
2023-05-17T05:39:47.165Z,16.1
2023-05-17T05:44:43.683Z,18.8
2023-05-17T05:47:11.939Z,17
2023-05-17T05:48:26.671Z,20.2
2023-05-17T05:49:40.213Z,22.1
2023-05-17T05:52:08.469Z,16.9
2023-05-17T05:54:36.733Z,16.6
2023-05-17T05:57:04.984Z,15
2023-05-17T05:59:33.244Z,18.8
2023-05-17T06:02:01.500Z,18
2023-05-17T06:04:29.759Z,16.6
2023-05-17T06:06:58.020Z,16.5
2023-05-17T06:09:26.269Z,11.7
2023-05-17T06:11:54.529Z,18
2023-05-17T06:14:22.791Z,17.5
2023-05-17T06:16:51.042Z,15.8
2023-05-17T06:19:19.300Z,14.6
2023-05-17T06:21:47.558Z,15.7
2023-05-17T06:24:15.821Z,18.2
2023-05-17T06:26:44.072Z,14.4
2023-05-17T06:29:12.328Z,15.6
2023-05-17T06:31:40.585Z,15.7
2023-05-17T06:34:08.846Z,13.1
2023-05-17T06:36:37.103Z,16.7
2023-05-17T06:37:51.850Z,14.5
2023-05-17T06:39:05.397Z,14.4
2023-05-17T06:41:33.706Z,17
2023-05-17T06:46:30.169Z,14.5
2023-05-17T06:48:58.426Z,13.4
2023-05-17T06:51:26.676Z,15.7
2023-05-17T06:53:54.940Z,15.1
2023-05-17T06:56:23.190Z,17.9
2023-05-17T06:58:51.449Z,17.1
2023-05-17T07:01:19.711Z,16.6
2023-05-17T07:02:34.441Z,15.6
2023-05-17T07:03:47.981Z,14.4
2023-05-17T07:06:16.237Z,13.6
2023-05-17T07:08:44.501Z,19
2023-05-17T07:11:12.754Z,16.6
2023-05-17T07:13:41.009Z,14.2
2023-05-17T07:18:37.528Z,18.3
2023-05-17T07:21:05.780Z,15.1
2023-05-17T07:23:34.035Z,15.4
2023-05-17T07:26:02.297Z,15.5
2023-05-17T07:27:17.025Z,15.7
2023-05-17T07:28:30.575Z,15.6
2023-05-17T07:30:58.833Z,12.2
2023-05-17T07:33:27.084Z,15.1
2023-05-17T07:35:55.343Z,13.9
2023-05-17T07:38:23.599Z,16.5
2023-05-17T07:40:51.852Z,13.6
2023-05-17T07:43:20.110Z,15.9
2023-05-17T07:45:48.370Z,17.6
2023-05-17T07:50:44.881Z,13.8
2023-05-17T07:51:59.618Z,11.9
2023-05-17T07:53:13.166Z,18.2
2023-05-17T07:55:41.417Z,13.7
2023-05-17T07:58:09.677Z,17.3
2023-05-17T08:00:37.935Z,19.1
2023-05-17T08:03:06.190Z,16
2023-05-17T08:05:34.445Z,11
2023-05-17T08:08:02.703Z,17.5
2023-05-17T08:10:30.963Z,15.7
2023-05-17T08:12:59.213Z,14.5
2023-05-17T08:15:27.468Z,14.9
2023-05-17T08:16:42.197Z,14.6
2023-05-17T08:20:24.231Z,14.3
2023-05-17T08:22:52.491Z,15.1
2023-05-17T08:25:20.753Z,16
2023-05-17T08:27:49.007Z,14.5
2023-05-17T08:30:17.259Z,17
2023-05-17T08:32:45.517Z,14.6
2023-05-17T08:35:13.771Z,14.8
2023-05-17T08:37:42.027Z,13.8
2023-05-17T08:40:10.283Z,16.4
2023-05-17T08:41:25.013Z,14.8
2023-05-17T08:42:38.567Z,14.8
2023-05-17T08:45:06.824Z,14.2
2023-05-17T08:47:35.072Z,16.1
2023-05-17T08:52:31.592Z,17.9
2023-05-17T08:54:59.850Z,15.5
2023-05-17T08:57:28.107Z,15
2023-05-17T08:59:56.354Z,12.7
2023-05-17T09:02:24.619Z,15
2023-05-17T09:04:52.875Z,13.5
2023-05-17T09:06:07.599Z,16
2023-05-17T09:07:21.151Z,11.6
2023-05-17T09:09:49.407Z,13.1
2023-05-17T09:12:17.661Z,17.1
2023-05-17T09:14:45.917Z,13.5
2023-05-17T09:17:14.172Z,14.3
2023-05-17T09:19:42.436Z,16.7
2023-05-17T09:24:38.948Z,13.9
2023-05-17T09:27:07.199Z,12.6
2023-05-17T09:29:35.462Z,16.3
2023-05-17T09:30:50.188Z,14.7
2023-05-17T09:32:03.736Z,11.4
2023-05-17T09:34:31.992Z,11.1
2023-05-17T09:37:00.250Z,10.8
2023-05-17T09:39:28.510Z,14
2023-05-17T09:41:56.764Z,12.9
2023-05-17T09:44:25.022Z,17.8
2023-05-17T09:46:53.276Z,11.2
2023-05-17T09:49:21.532Z,14.2
2023-05-17T09:51:49.796Z,14.1
2023-05-17T09:55:32.775Z,14.1
2023-05-17T09:56:46.331Z,11.9
2023-05-17T09:59:14.583Z,11.9
2023-05-17T10:01:42.842Z,13.3
2023-05-17T10:04:11.093Z,17.2
2023-05-17T10:06:39.355Z,13.5
2023-05-17T10:09:07.611Z,11.3
2023-05-17T10:11:35.871Z,13.5
2023-05-17T10:14:04.128Z,14.8
2023-05-17T10:16:32.386Z,12.8
2023-05-17T10:19:00.641Z,10.5
2023-05-17T10:20:15.372Z,16.4
2023-05-17T10:21:28.920Z,17.2
2023-05-17T10:26:25.434Z,15.2
2023-05-17T10:28:53.685Z,12.8
2023-05-17T10:31:21.947Z,13.1
2023-05-17T10:33:50.200Z,13
2023-05-17T10:36:18.454Z,13.2
2023-05-17T10:38:46.710Z,9.5
2023-05-17T10:41:14.969Z,9.8
2023-05-17T10:43:43.224Z,9.6
2023-05-17T10:44:58.004Z,9.5
2023-05-17T10:46:11.507Z,9.2
2023-05-17T10:48:39.755Z,11.7
2023-05-17T10:51:08.021Z,7.6
2023-05-17T10:53:36.270Z,11.1
2023-05-17T10:58:32.786Z,8.8
2023-05-17T11:01:01.041Z,9.2
2023-05-17T11:03:29.299Z,8.7
2023-05-17T11:05:57.551Z,8.3
2023-05-17T11:08:25.816Z,8.5
2023-05-17T11:09:40.540Z,9.4
2023-05-17T11:10:54.088Z,8.9
2023-05-17T11:13:22.344Z,9.3
2023-05-17T11:15:50.602Z,9.7
2023-05-17T11:18:18.858Z,9.5
2023-05-17T11:20:47.112Z,9.8
2023-05-17T11:23:15.370Z,9.5
2023-05-17T11:25:43.626Z,6.9
2023-05-17T11:30:40.137Z,11.2
2023-05-17T11:33:08.393Z,11.2
2023-05-17T11:34:23.121Z,9.6
2023-05-17T11:35:36.670Z,12
2023-05-17T11:38:04.933Z,10.3
2023-05-17T11:40:33.190Z,12.6
2023-05-17T11:43:01.443Z,12.2
2023-05-17T11:45:29.699Z,13.8
2023-05-17T11:47:57.956Z,10.1
2023-05-17T11:50:26.212Z,11
2023-05-17T11:52:54.468Z,12.1
2023-05-17T11:55:22.727Z,8.8
2023-05-17T11:57:50.982Z,10.4
2023-05-17T12:00:19.243Z,10.9
2023-05-17T12:02:47.495Z,11.9
2023-05-17T12:05:15.759Z,9.4
2023-05-17T12:07:44.007Z,11
2023-05-17T12:10:12.265Z,10.3
2023-05-17T12:12:40.527Z,8.2
2023-05-17T12:15:08.779Z,9
2023-05-17T12:17:37.035Z,8.4
2023-05-17T12:20:05.288Z,6.7
2023-05-17T12:22:33.548Z,6.3
2023-05-17T12:23:48.292Z,9.8
2023-05-17T12:25:01.841Z,13.3
2023-05-17T12:27:30.096Z,7.2
2023-05-17T12:32:26.616Z,10
2023-05-17T12:34:54.866Z,6.7
2023-05-17T12:37:23.124Z,7.2
2023-05-17T12:39:51.382Z,10.1
2023-05-17T12:42:19.640Z,9.6
2023-05-17T12:44:47.895Z,8.2
2023-05-17T12:47:16.159Z,7.5
2023-05-17T12:48:30.881Z,7
2023-05-17T12:49:44.427Z,10.9
2023-05-17T12:52:12.688Z,10.9
2023-05-17T12:54:40.961Z,12
2023-05-17T12:57:09.200Z,6.7
2023-05-17T12:59:37.458Z,7.2
2023-05-17T13:04:33.975Z,8.2
2023-05-17T13:07:02.225Z,7.1
2023-05-17T13:09:30.481Z,9.2
2023-05-17T13:11:58.735Z,8.4
2023-05-17T13:13:13.464Z,7.5
2023-05-17T13:14:27.016Z,9.2
2023-05-17T13:16:55.272Z,6.3
2023-05-17T13:19:23.528Z,7.3
2023-05-17T13:21:51.781Z,9.2
2023-05-17T13:24:20.040Z,7.3
2023-05-17T13:26:48.302Z,6.2
2023-05-17T13:29:16.558Z,6.2
2023-05-17T13:31:44.809Z,8.7
2023-05-17T13:36:41.327Z,9.1
2023-05-17T13:37:56.059Z,8.8
2023-05-17T13:39:09.602Z,8.9
2023-05-17T13:41:37.853Z,11.7
2023-05-17T13:44:06.118Z,9.3
2023-05-17T13:46:34.366Z,10.9
2023-05-17T13:49:02.628Z,10.4
2023-05-17T13:51:30.880Z,9.7
2023-05-17T13:53:59.144Z,9.2
2023-05-17T13:56:27.396Z,12.9
2023-05-17T13:58:55.650Z,9.3
2023-05-17T14:01:23.905Z,13
2023-05-17T14:02:38.638Z,10
2023-05-17T14:06:20.678Z,10.1
2023-05-17T14:08:48.931Z,11.3
2023-05-17T14:11:17.191Z,8.9
2023-05-17T14:13:45.444Z,10.5
2023-05-17T14:16:13.695Z,6.2
2023-05-17T14:18:41.957Z,8.5
2023-05-17T14:21:10.208Z,11.2
2023-05-17T14:23:38.473Z,10
2023-05-17T14:26:06.725Z,10.4
2023-05-17T14:27:21.457Z,7.4
2023-05-17T14:28:35.001Z,7.3
2023-05-17T14:31:03.256Z,8.3
2023-05-17T14:33:31.518Z,9.5
2023-05-17T14:38:28.032Z,7.6
2023-05-17T14:40:56.285Z,8
2023-05-17T14:43:24.545Z,10.3
2023-05-17T14:45:52.795Z,8.7
2023-05-17T14:48:21.054Z,8.6
2023-05-17T14:50:49.314Z,8.1
2023-05-17T14:52:04.042Z,9.5
2023-05-17T14:53:17.586Z,9.1
2023-05-17T14:55:45.841Z,8
2023-05-17T14:58:14.105Z,7.8
2023-05-17T15:00:42.354Z,7.8
2023-05-17T15:03:10.625Z,10.3
2023-05-17T15:05:38.874Z,8.8
2023-05-17T15:10:35.390Z,9.3
2023-05-17T15:13:03.640Z,7.5
2023-05-17T15:15:31.896Z,11
2023-05-17T15:16:46.633Z,9.3
2023-05-17T15:18:00.177Z,11.7
2023-05-17T15:20:28.436Z,12.6
2023-05-17T15:22:56.685Z,9.3
2023-05-17T15:25:24.946Z,9.6
2023-05-17T15:27:53.206Z,9.7
2023-05-17T15:30:21.459Z,7.9
2023-05-17T15:32:49.716Z,11.3
2023-05-17T15:35:17.968Z,9.6
2023-05-17T15:37:46.232Z,11
2023-05-17T15:41:29.218Z,9.3
2023-05-17T15:42:42.760Z,10.5
2023-05-17T15:45:11.022Z,8.2
2023-05-17T15:47:39.272Z,9.9
2023-05-17T15:50:07.530Z,8.5
2023-05-17T15:52:35.790Z,8.2
2023-05-17T15:55:04.045Z,9.2
2023-05-17T15:57:32.301Z,11.2
2023-05-17T16:00:00.564Z,7.2
2023-05-17T16:02:28.814Z,9.5
2023-05-17T16:04:57.078Z,9.9
2023-05-17T16:06:11.800Z,9.2
2023-05-17T16:07:25.349Z,8.4
2023-05-17T16:12:21.867Z,8.9
2023-05-17T16:14:50.122Z,10.1
2023-05-17T16:17:18.377Z,10.1
2023-05-17T16:19:46.640Z,6.8
2023-05-17T16:22:14.888Z,8.6
2023-05-17T16:24:43.149Z,10.5
2023-05-17T16:27:11.403Z,9.6
2023-05-17T16:29:39.665Z,13.4
2023-05-17T16:30:54.389Z,9.1
2023-05-17T16:32:07.941Z,10.5
2023-05-17T16:34:36.196Z,8.7
2023-05-17T16:37:04.456Z,8.5
2023-05-17T16:39:32.708Z,9.2
2023-05-17T16:44:29.228Z,7.9
2023-05-17T16:46:57.482Z,7.6
2023-05-17T16:49:25.740Z,11.4
2023-05-17T16:51:53.993Z,7.6
2023-05-17T16:54:22.249Z,11
2023-05-17T16:55:36.984Z,10.1
2023-05-17T16:56:50.535Z,10
2023-05-17T16:59:18.790Z,9.8
2023-05-17T17:01:47.048Z,12.4
2023-05-17T17:04:15.302Z,10.5
2023-05-17T17:06:43.556Z,5.5
2023-05-17T17:09:11.810Z,9.6
2023-05-17T17:11:40.068Z,7.1
2023-05-17T17:16:36.589Z,13.6
2023-05-17T17:19:04.838Z,7.1
2023-05-17T17:20:19.570Z,8.6
2023-05-17T17:21:33.119Z,10.1
2023-05-17T17:24:01.375Z,9.8
2023-05-17T17:26:29.632Z,7.4
2023-05-17T17:28:57.895Z,8.5
2023-05-17T17:31:26.155Z,7.4
2023-05-17T17:33:54.402Z,10.4
2023-05-17T17:36:22.659Z,8.9
2023-05-17T17:38:50.918Z,12
2023-05-17T17:41:19.178Z,7
2023-05-17T17:43:47.427Z,9.8
2023-05-17T17:46:15.693Z,8.7
2023-05-17T17:48:43.948Z,11.7
2023-05-17T17:51:12.207Z,9.9
2023-05-17T17:53:40.464Z,9.2
2023-05-17T17:56:08.714Z,9.5
2023-05-17T17:58:36.972Z,9.7
2023-05-17T18:01:05.233Z,12
2023-05-17T18:03:33.485Z,12.3
2023-05-17T18:06:01.742Z,10.3
2023-05-17T18:08:29.997Z,11.6
2023-05-17T18:09:44.747Z,8.9
2023-05-17T18:10:58.296Z,8.2
2023-05-17T18:13:26.551Z,12.5
2023-05-17T18:18:23.062Z,7.1
2023-05-17T18:20:51.323Z,7.7
2023-05-17T18:23:19.571Z,7.3
2023-05-17T18:25:47.833Z,5.7
2023-05-17T18:28:16.086Z,8.7
2023-05-17T18:30:44.344Z,5.5
2023-05-17T18:33:12.604Z,7.3
2023-05-17T18:34:27.331Z,7.5
2023-05-17T18:35:40.875Z,7.9
2023-05-17T18:38:09.137Z,8.8
2023-05-17T18:40:37.387Z,7.8
2023-05-17T18:43:05.647Z,9.5
2023-05-17T18:45:33.907Z,6.7
2023-05-17T18:50:30.420Z,8
2023-05-17T18:52:58.676Z,6.9
2023-05-17T18:55:26.928Z,6.4
2023-05-17T18:57:55.191Z,6.4
2023-05-17T18:59:09.912Z,5.3
2023-05-17T19:00:23.467Z,5.5
2023-05-17T19:02:51.724Z,8
2023-05-17T19:05:19.979Z,6.1
2023-05-17T19:07:48.235Z,7.7
2023-05-17T19:10:16.489Z,8
2023-05-17T19:12:44.741Z,7.3
2023-05-17T19:15:13.004Z,6.1
2023-05-17T19:17:41.263Z,8.5
2023-05-17T19:22:37.774Z,7.2
2023-05-17T19:23:52.497Z,10.8
2023-05-17T19:25:06.043Z,9.8
2023-05-17T19:27:34.302Z,6.9
2023-05-17T19:30:02.563Z,12
2023-05-17T19:32:30.821Z,10.3
2023-05-17T19:34:59.071Z,7.7
2023-05-17T19:37:27.334Z,7.8
2023-05-17T19:42:23.840Z,8.2
2023-05-17T19:44:52.097Z,10.3
2023-05-17T19:47:20.354Z,8.9
2023-05-17T19:48:35.083Z,10.2
2023-05-17T19:52:17.122Z,12.6
2023-05-17T19:54:45.380Z,8.2
2023-05-17T19:57:13.637Z,9.9
2023-05-17T19:59:41.893Z,9.4
2023-05-17T20:02:10.147Z,9.9
2023-05-17T20:04:38.407Z,10.6
2023-05-17T20:07:06.659Z,8.4
2023-05-17T20:09:34.917Z,11.2
2023-05-17T20:12:03.176Z,12
2023-05-17T20:13:17.904Z,13.4
2023-05-17T20:14:31.448Z,9
2023-05-17T20:16:59.704Z,13
2023-05-17T20:19:27.963Z,10.5
2023-05-17T20:24:24.474Z,11.1
2023-05-17T20:26:52.732Z,9.5
2023-05-17T20:29:20.989Z,12.2
2023-05-17T20:31:49.250Z,9.3
2023-05-17T20:34:17.500Z,11
2023-05-17T20:36:45.759Z,11.5
2023-05-17T20:38:00.486Z,9.6
2023-05-17T20:39:14.033Z,12.4
2023-05-17T20:41:42.293Z,8.6
2023-05-17T20:44:10.543Z,12.1
2023-05-17T20:46:38.809Z,13.6
2023-05-17T20:49:07.061Z,12.9
2023-05-17T20:51:35.313Z,12.9
2023-05-17T20:56:31.828Z,11.6
2023-05-17T20:59:00.085Z,10.9
2023-05-17T21:01:28.345Z,9
2023-05-17T21:02:43.073Z,9.1
2023-05-17T21:03:56.621Z,8.7
2023-05-17T21:06:24.880Z,10.8
2023-05-17T21:08:53.131Z,12.6
2023-05-17T21:11:21.393Z,11.5
2023-05-17T21:13:49.650Z,7.2
2023-05-17T21:16:17.901Z,9.3
2023-05-17T21:18:46.158Z,9
2023-05-17T21:21:14.422Z,12.8
2023-05-17T21:23:42.676Z,8.6
2023-05-17T21:27:25.664Z,11.7
2023-05-17T21:28:39.210Z,11
2023-05-17T21:31:07.467Z,8.4
2023-05-17T21:33:35.725Z,8.7
2023-05-17T21:36:03.977Z,11.3
2023-05-17T21:38:32.234Z,8.1
2023-05-17T21:41:00.494Z,8.4
2023-05-17T21:43:28.749Z,9.4
2023-05-17T21:45:57.004Z,10.3
2023-05-17T21:48:25.262Z,9.7
2023-05-17T21:50:53.520Z,9.2
2023-05-17T21:52:08.251Z,10.5
2023-05-17T21:53:21.800Z,9
2023-05-17T21:58:18.317Z,11.5
2023-05-17T22:00:46.574Z,9.1
2023-05-17T22:03:14.829Z,8.5
2023-05-17T22:05:43.086Z,7.5
2023-05-17T22:08:11.345Z,8
2023-05-17T22:10:39.600Z,9.4
2023-05-17T22:13:07.855Z,9.7
2023-05-17T22:15:36.111Z,9.8
2023-05-17T22:16:50.845Z,10.3
2023-05-17T22:18:04.392Z,9.3
2023-05-17T22:20:32.648Z,10.5
2023-05-17T22:23:00.904Z,7.7
2023-05-17T22:25:29.161Z,11.4
2023-05-17T22:30:25.670Z,10
2023-05-17T22:32:53.931Z,9.1
2023-05-17T22:35:22.189Z,8.1
2023-05-17T22:37:50.450Z,10.2
2023-05-17T22:40:18.706Z,9.6
2023-05-17T22:41:33.428Z,11
2023-05-17T22:42:46.981Z,10.3
2023-05-17T22:45:15.236Z,8.8
2023-05-17T22:47:43.498Z,9
2023-05-17T22:50:11.758Z,8.7
2023-05-17T22:52:40.014Z,12.9
2023-05-17T22:55:08.271Z,10.6
2023-05-17T22:57:36.520Z,14.3
2023-05-17T23:02:33.038Z,9.4
2023-05-17T23:05:01.294Z,10
2023-05-17T23:06:16.019Z,8.8
2023-05-17T23:07:29.570Z,10.1
2023-05-17T23:09:57.830Z,8.5
2023-05-17T23:12:26.082Z,9.9
2023-05-17T23:17:22.598Z,8.9
2023-05-17T23:19:50.858Z,8.6
2023-05-17T23:22:19.110Z,9.5
2023-05-17T23:24:47.369Z,10.8
2023-05-17T23:27:15.628Z,10.1
2023-05-17T23:29:43.877Z,12.6
2023-05-17T23:32:12.143Z,9.8
2023-05-17T23:34:40.398Z,8.2
2023-05-17T23:37:08.652Z,8.9
2023-05-17T23:39:36.913Z,9.3
2023-05-17T23:42:05.170Z,12.7
2023-05-17T23:44:33.428Z,11.7
2023-05-17T23:47:01.681Z,10.5
2023-05-17T23:49:29.933Z,10.3
2023-05-17T23:51:58.189Z,9.9
2023-05-17T23:54:26.447Z,10
2023-05-17T23:55:41.199Z,10.3
2023-05-17T23:56:54.749Z,8.6
2023-05-17T23:59:23.003Z,12.9
